sensor_id;sensor_type;location;lat;lon;timestamp;P1;durP1;ratioP1;P2;durP2;ratioP2
51949;SDS011;37974;53.218;6.640;2023-04-25T00:00:59;35.67;;;5.45;;
51949;SDS011;37974;53.218;6.640;2023-04-25T00:03:27;33.78;;;5.22;;
51949;SDS011;37974;53.218;6.640;2023-04-25T00:05:55;31.85;;;4.70;;
51949;SDS011;37974;53.218;6.640;2023-04-25T00:08:45;28.05;;;4.93;;
51949;SDS011;37974;53.218;6.640;2023-04-25T00:11:11;29.17;;;5.25;;
51949;SDS011;37974;53.218;6.640;2023-04-25T00:13:37;31.80;;;5.47;;
51949;SDS011;37974;53.218;6.640;2023-04-25T00:16:27;22.05;;;4.40;;
51949;SDS011;37974;53.218;6.640;2023-04-25T00:18:58;23.02;;;4.20;;
51949;SDS011;37974;53.218;6.640;2023-04-25T00:21:41;27.40;;;5.30;;
51949;SDS011;37974;53.218;6.640;2023-04-25T00:24:07;30.23;;;5.15;;
51949;SDS011;37974;53.218;6.640;2023-04-25T00:26:33;25.27;;;4.45;;
51949;SDS011;37974;53.218;6.640;2023-04-25T00:29:00;27.67;;;5.10;;
51949;SDS011;37974;53.218;6.640;2023-04-25T00:31:26;32.35;;;4.88;;
51949;SDS011;37974;53.218;6.640;2023-04-25T00:33:58;24.25;;;3.92;;
51949;SDS011;37974;53.218;6.640;2023-04-25T00:36:27;18.15;;;3.90;;
51949;SDS011;37974;53.218;6.640;2023-04-25T00:38:53;20.90;;;4.13;;
51949;SDS011;37974;53.218;6.640;2023-04-25T00:41:20;20.02;;;3.40;;
51949;SDS011;37974;53.218;6.640;2023-04-25T00:43:48;20.48;;;3.35;;
51949;SDS011;37974;53.218;6.640;2023-04-25T00:46:17;19.25;;;3.08;;
51949;SDS011;37974;53.218;6.640;2023-04-25T00:48:45;17.33;;;2.97;;
51949;SDS011;37974;53.218;6.640;2023-04-25T00:51:13;19.35;;;2.97;;
51949;SDS011;37974;53.218;6.640;2023-04-25T00:53:44;20.15;;;3.03;;
51949;SDS011;37974;53.218;6.640;2023-04-25T00:56:53;21.38;;;3.55;;
51949;SDS011;37974;53.218;6.640;2023-04-25T00:59:05;17.15;;;3.70;;
51949;SDS011;37974;53.218;6.640;2023-04-25T01:01:31;26.55;;;3.35;;
51949;SDS011;37974;53.218;6.640;2023-04-25T01:03:58;16.75;;;3.20;;
51949;SDS011;37974;53.218;6.640;2023-04-25T01:06:24;19.55;;;3.00;;
51949;SDS011;37974;53.218;6.640;2023-04-25T01:08:50;19.65;;;3.63;;
51949;SDS011;37974;53.218;6.640;2023-04-25T01:11:17;26.75;;;3.70;;
51949;SDS011;37974;53.218;6.640;2023-04-25T01:13:42;18.25;;;3.30;;
51949;SDS011;37974;53.218;6.640;2023-04-25T01:16:12;21.98;;;2.85;;
51949;SDS011;37974;53.218;6.640;2023-04-25T01:18:39;16.98;;;3.10;;
51949;SDS011;37974;53.218;6.640;2023-04-25T01:21:07;21.98;;;3.53;;
51949;SDS011;37974;53.218;6.640;2023-04-25T01:23:34;22.27;;;4.57;;
51949;SDS011;37974;53.218;6.640;2023-04-25T01:26:01;22.88;;;3.42;;
51949;SDS011;37974;53.218;6.640;2023-04-25T01:28:28;15.77;;;2.85;;
51949;SDS011;37974;53.218;6.640;2023-04-25T01:30:58;19.20;;;3.42;;
51949;SDS011;37974;53.218;6.640;2023-04-25T01:33:24;19.48;;;3.85;;
51949;SDS011;37974;53.218;6.640;2023-04-25T01:35:50;24.73;;;3.05;;
51949;SDS011;37974;53.218;6.640;2023-04-25T01:38:16;24.58;;;3.67;;
51949;SDS011;37974;53.218;6.640;2023-04-25T01:40:42;19.60;;;3.45;;
51949;SDS011;37974;53.218;6.640;2023-04-25T01:43:13;20.73;;;3.17;;
51949;SDS011;37974;53.218;6.640;2023-04-25T01:45:39;22.13;;;4.00;;
51949;SDS011;37974;53.218;6.640;2023-04-25T01:48:10;18.55;;;3.00;;
51949;SDS011;37974;53.218;6.640;2023-04-25T01:50:37;18.75;;;2.97;;
51949;SDS011;37974;53.218;6.640;2023-04-25T01:53:04;16.00;;;3.25;;
51949;SDS011;37974;53.218;6.640;2023-04-25T01:55:31;23.80;;;3.60;;
51949;SDS011;37974;53.218;6.640;2023-04-25T01:57:57;20.23;;;3.22;;
51949;SDS011;37974;53.218;6.640;2023-04-25T02:00:25;24.95;;;4.65;;
51949;SDS011;37974;53.218;6.640;2023-04-25T02:02:50;21.05;;;3.63;;
51949;SDS011;37974;53.218;6.640;2023-04-25T02:05:18;20.98;;;3.60;;
51949;SDS011;37974;53.218;6.640;2023-04-25T02:07:45;24.15;;;3.88;;
51949;SDS011;37974;53.218;6.640;2023-04-25T02:10:12;27.02;;;3.58;;
51949;SDS011;37974;53.218;6.640;2023-04-25T02:12:37;24.40;;;3.90;;
51949;SDS011;37974;53.218;6.640;2023-04-25T02:15:10;18.52;;;3.03;;
51949;SDS011;37974;53.218;6.640;2023-04-25T02:17:36;24.58;;;3.80;;
51949;SDS011;37974;53.218;6.640;2023-04-25T02:20:02;25.20;;;4.07;;
51949;SDS011;37974;53.218;6.640;2023-04-25T02:22:29;22.75;;;3.55;;
51949;SDS011;37974;53.218;6.640;2023-04-25T02:24:55;20.02;;;3.38;;
51949;SDS011;37974;53.218;6.640;2023-04-25T02:27:21;24.88;;;3.80;;
51949;SDS011;37974;53.218;6.640;2023-04-25T02:29:47;21.52;;;4.45;;
51949;SDS011;37974;53.218;6.640;2023-04-25T02:32:12;23.42;;;3.72;;
51949;SDS011;37974;53.218;6.640;2023-04-25T02:34:38;24.23;;;3.70;;
51949;SDS011;37974;53.218;6.640;2023-04-25T02:37:04;23.77;;;5.32;;
51949;SDS011;37974;53.218;6.640;2023-04-25T02:39:30;29.40;;;3.88;;
51949;SDS011;37974;53.218;6.640;2023-04-25T02:41:56;20.38;;;3.63;;
51949;SDS011;37974;53.218;6.640;2023-04-25T02:44:21;22.50;;;3.13;;
51949;SDS011;37974;53.218;6.640;2023-04-25T02:46:47;30.88;;;3.03;;
51949;SDS011;37974;53.218;6.640;2023-04-25T02:49:13;23.10;;;3.58;;
51949;SDS011;37974;53.218;6.640;2023-04-25T02:51:39;23.20;;;3.20;;
51949;SDS011;37974;53.218;6.640;2023-04-25T02:54:05;20.35;;;3.42;;
51949;SDS011;37974;53.218;6.640;2023-04-25T02:56:31;20.73;;;3.33;;
51949;SDS011;37974;53.218;6.640;2023-04-25T02:58:57;18.13;;;2.78;;
51949;SDS011;37974;53.218;6.640;2023-04-25T03:01:23;21.30;;;4.18;;
51949;SDS011;37974;53.218;6.640;2023-04-25T03:03:51;14.68;;;2.58;;
51949;SDS011;37974;53.218;6.640;2023-04-25T03:06:16;22.10;;;3.53;;
51949;SDS011;37974;53.218;6.640;2023-04-25T03:08:42;18.25;;;3.20;;
51949;SDS011;37974;53.218;6.640;2023-04-25T03:11:08;13.95;;;2.50;;
51949;SDS011;37974;53.218;6.640;2023-04-25T03:13:34;17.25;;;3.33;;
51949;SDS011;37974;53.218;6.640;2023-04-25T03:16:02;21.65;;;3.25;;
51949;SDS011;37974;53.218;6.640;2023-04-25T03:18:28;17.45;;;3.05;;
51949;SDS011;37974;53.218;6.640;2023-04-25T03:20:54;16.00;;;3.38;;
51949;SDS011;37974;53.218;6.640;2023-04-25T03:23:19;18.98;;;3.00;;
51949;SDS011;37974;53.218;6.640;2023-04-25T03:25:47;22.52;;;2.63;;
51949;SDS011;37974;53.218;6.640;2023-04-25T03:28:13;18.77;;;2.67;;
51949;SDS011;37974;53.218;6.640;2023-04-25T03:30:39;15.82;;;3.13;;
51949;SDS011;37974;53.218;6.640;2023-04-25T03:33:05;16.40;;;2.97;;
51949;SDS011;37974;53.218;6.640;2023-04-25T03:35:31;22.70;;;2.88;;
51949;SDS011;37974;53.218;6.640;2023-04-25T03:37:57;28.35;;;3.28;;
51949;SDS011;37974;53.218;6.640;2023-04-25T03:40:23;20.10;;;2.90;;
51949;SDS011;37974;53.218;6.640;2023-04-25T03:42:49;17.40;;;2.75;;
51949;SDS011;37974;53.218;6.640;2023-04-25T03:45:21;20.00;;;2.88;;
51949;SDS011;37974;53.218;6.640;2023-04-25T03:47:48;16.48;;;2.63;;
51949;SDS011;37974;53.218;6.640;2023-04-25T03:50:16;21.73;;;2.63;;
51949;SDS011;37974;53.218;6.640;2023-04-25T03:52:42;14.63;;;2.92;;
51949;SDS011;37974;53.218;6.640;2023-04-25T03:55:08;16.65;;;2.60;;
51949;SDS011;37974;53.218;6.640;2023-04-25T03:57:37;23.08;;;3.20;;
51949;SDS011;37974;53.218;6.640;2023-04-25T04:00:03;18.45;;;3.70;;
51949;SDS011;37974;53.218;6.640;2023-04-25T04:02:29;22.45;;;3.08;;
51949;SDS011;37974;53.218;6.640;2023-04-25T04:05:11;18.90;;;3.53;;
51949;SDS011;37974;53.218;6.640;2023-04-25T04:07:37;19.60;;;3.45;;
51949;SDS011;37974;53.218;6.640;2023-04-25T04:10:11;14.18;;;2.97;;
51949;SDS011;37974;53.218;6.640;2023-04-25T04:12:37;20.05;;;3.15;;
51949;SDS011;37974;53.218;6.640;2023-04-25T04:15:03;17.23;;;3.28;;
51949;SDS011;37974;53.218;6.640;2023-04-25T04:17:33;14.95;;;3.47;;
51949;SDS011;37974;53.218;6.640;2023-04-25T04:19:59;24.25;;;3.08;;
51949;SDS011;37974;53.218;6.640;2023-04-25T04:22:25;18.75;;;2.70;;
51949;SDS011;37974;53.218;6.640;2023-04-25T04:24:51;16.15;;;2.97;;
51949;SDS011;37974;53.218;6.640;2023-04-25T04:27:27;15.05;;;2.97;;
51949;SDS011;37974;53.218;6.640;2023-04-25T04:29:53;18.08;;;3.42;;
51949;SDS011;37974;53.218;6.640;2023-04-25T04:32:31;17.65;;;2.75;;
51949;SDS011;37974;53.218;6.640;2023-04-25T04:34:58;12.00;;;2.65;;
51949;SDS011;37974;53.218;6.640;2023-04-25T04:37:27;19.20;;;3.38;;
51949;SDS011;37974;53.218;6.640;2023-04-25T04:39:53;21.25;;;3.13;;
51949;SDS011;37974;53.218;6.640;2023-04-25T04:42:22;20.80;;;3.50;;
51949;SDS011;37974;53.218;6.640;2023-04-25T04:44:53;15.75;;;2.97;;
51949;SDS011;37974;53.218;6.640;2023-04-25T04:47:42;21.30;;;2.65;;
51949;SDS011;37974;53.218;6.640;2023-04-25T04:50:08;22.27;;;3.15;;
51949;SDS011;37974;53.218;6.640;2023-04-25T04:52:38;23.50;;;3.90;;
51949;SDS011;37974;53.218;6.640;2023-04-25T04:55:26;20.67;;;3.05;;
51949;SDS011;37974;53.218;6.640;2023-04-25T04:58:40;21.13;;;3.22;;
51949;SDS011;37974;53.218;6.640;2023-04-25T05:05:13;22.27;;;3.20;;
51949;SDS011;37974;53.218;6.640;2023-04-25T05:08:50;14.00;;;2.55;;
51949;SDS011;37974;53.218;6.640;2023-04-25T05:11:48;13.23;;;2.22;;
51949;SDS011;37974;53.218;6.640;2023-04-25T05:14:40;7.25;;;1.50;;
51949;SDS011;37974;53.218;6.640;2023-04-25T05:28:14;9.23;;;1.30;;
51949;SDS011;37974;53.218;6.640;2023-04-25T05:31:09;10.98;;;1.38;;
51949;SDS011;37974;53.218;6.640;2023-04-25T05:33:37;6.95;;;1.33;;
51949;SDS011;37974;53.218;6.640;2023-04-25T05:36:22;8.07;;;1.50;;
51949;SDS011;37974;53.218;6.640;2023-04-25T05:39:22;8.90;;;1.42;;
51949;SDS011;37974;53.218;6.640;2023-04-25T05:42:42;9.45;;;1.52;;
51949;SDS011;37974;53.218;6.640;2023-04-25T05:45:13;8.10;;;1.70;;
51949;SDS011;37974;53.218;6.640;2023-04-25T05:47:39;14.13;;;2.22;;
51949;SDS011;37974;53.218;6.640;2023-04-25T05:50:05;10.70;;;1.33;;
51949;SDS011;37974;53.218;6.640;2023-04-25T05:52:38;13.00;;;2.15;;
51949;SDS011;37974;53.218;6.640;2023-04-25T05:55:12;12.80;;;1.70;;
51949;SDS011;37974;53.218;6.640;2023-04-25T05:57:41;13.30;;;1.80;;
51949;SDS011;37974;53.218;6.640;2023-04-25T06:00:11;16.42;;;1.85;;
51949;SDS011;37974;53.218;6.640;2023-04-25T06:02:37;12.45;;;1.90;;
51949;SDS011;37974;53.218;6.640;2023-04-25T06:05:06;12.80;;;2.05;;
51949;SDS011;37974;53.218;6.640;2023-04-25T06:07:32;14.98;;;1.80;;
51949;SDS011;37974;53.218;6.640;2023-04-25T06:09:57;15.90;;;2.58;;
51949;SDS011;37974;53.218;6.640;2023-04-25T06:12:36;15.77;;;2.33;;
51949;SDS011;37974;53.218;6.640;2023-04-25T06:15:03;12.98;;;1.70;;
51949;SDS011;37974;53.218;6.640;2023-04-25T06:17:30;10.75;;;1.92;;
51949;SDS011;37974;53.218;6.640;2023-04-25T06:19:59;8.43;;;1.48;;
51949;SDS011;37974;53.218;6.640;2023-04-25T06:22:28;5.88;;;1.50;;
51949;SDS011;37974;53.218;6.640;2023-04-25T06:24:54;4.63;;;1.13;;
51949;SDS011;37974;53.218;6.640;2023-04-25T06:27:24;6.78;;;1.00;;
51949;SDS011;37974;53.218;6.640;2023-04-25T06:29:50;5.55;;;1.45;;
51949;SDS011;37974;53.218;6.640;2023-04-25T06:32:15;12.98;;;1.58;;
51949;SDS011;37974;53.218;6.640;2023-04-25T06:34:43;7.90;;;1.60;;
51949;SDS011;37974;53.218;6.640;2023-04-25T06:37:09;7.55;;;1.90;;
51949;SDS011;37974;53.218;6.640;2023-04-25T06:39:34;12.35;;;1.58;;
51949;SDS011;37974;53.218;6.640;2023-04-25T06:42:00;13.60;;;2.22;;
51949;SDS011;37974;53.218;6.640;2023-04-25T06:44:26;11.98;;;1.50;;
51949;SDS011;37974;53.218;6.640;2023-04-25T06:46:54;12.68;;;2.13;;
51949;SDS011;37974;53.218;6.640;2023-04-25T06:49:20;11.07;;;1.80;;
51949;SDS011;37974;53.218;6.640;2023-04-25T06:51:47;10.65;;;1.67;;
51949;SDS011;37974;53.218;6.640;2023-04-25T06:54:13;16.33;;;2.40;;
51949;SDS011;37974;53.218;6.640;2023-04-25T06:56:49;12.73;;;2.10;;
51949;SDS011;37974;53.218;6.640;2023-04-25T06:59:30;21.10;;;3.33;;
51949;SDS011;37974;53.218;6.640;2023-04-25T07:02:04;16.75;;;2.60;;
51949;SDS011;37974;53.218;6.640;2023-04-25T07:05:13;17.45;;;2.22;;
51949;SDS011;37974;53.218;6.640;2023-04-25T07:07:46;12.52;;;2.22;;
51949;SDS011;37974;53.218;6.640;2023-04-25T07:10:35;12.20;;;2.17;;
51949;SDS011;37974;53.218;6.640;2023-04-25T07:13:30;11.88;;;2.38;;
51949;SDS011;37974;53.218;6.640;2023-04-25T07:16:06;15.68;;;2.10;;
51949;SDS011;37974;53.218;6.640;2023-04-25T07:18:51;16.27;;;2.28;;
51949;SDS011;37974;53.218;6.640;2023-04-25T07:21:17;10.13;;;1.98;;
51949;SDS011;37974;53.218;6.640;2023-04-25T07:23:43;14.35;;;2.33;;
51949;SDS011;37974;53.218;6.640;2023-04-25T07:26:11;14.15;;;1.60;;
51949;SDS011;37974;53.218;6.640;2023-04-25T07:29:13;12.73;;;2.05;;
51949;SDS011;37974;53.218;6.640;2023-04-25T07:32:18;12.20;;;1.60;;
51949;SDS011;37974;53.218;6.640;2023-04-25T07:35:05;10.63;;;1.55;;
51949;SDS011;37974;53.218;6.640;2023-04-25T07:40:07;12.00;;;1.30;;
51949;SDS011;37974;53.218;6.640;2023-04-25T07:42:45;8.55;;;1.40;;
51949;SDS011;37974;53.218;6.640;2023-04-25T07:45:13;8.60;;;1.60;;
51949;SDS011;37974;53.218;6.640;2023-04-25T07:48:36;11.40;;;1.58;;
51949;SDS011;37974;53.218;6.640;2023-04-25T07:51:06;19.85;;;2.25;;
51949;SDS011;37974;53.218;6.640;2023-04-25T07:53:51;10.23;;;1.55;;
51949;SDS011;37974;53.218;6.640;2023-04-25T07:56:16;13.77;;;1.77;;
51949;SDS011;37974;53.218;6.640;2023-04-25T07:58:47;15.85;;;2.13;;
51949;SDS011;37974;53.218;6.640;2023-04-25T08:01:26;10.75;;;2.20;;
51949;SDS011;37974;53.218;6.640;2023-04-25T08:04:11;12.15;;;2.00;;
51949;SDS011;37974;53.218;6.640;2023-04-25T08:06:37;10.05;;;1.50;;
51949;SDS011;37974;53.218;6.640;2023-04-25T08:09:03;9.20;;;1.20;;
51949;SDS011;37974;53.218;6.640;2023-04-25T08:11:29;10.95;;;1.67;;
51949;SDS011;37974;53.218;6.640;2023-04-25T08:14:11;7.45;;;1.45;;
51949;SDS011;37974;53.218;6.640;2023-04-25T08:16:40;17.75;;;1.45;;
51949;SDS011;37974;53.218;6.640;2023-04-25T08:19:12;8.65;;;1.15;;
51949;SDS011;37974;53.218;6.640;2023-04-25T08:21:38;7.88;;;1.90;;
51949;SDS011;37974;53.218;6.640;2023-04-25T08:24:27;6.10;;;1.33;;
51949;SDS011;37974;53.218;6.640;2023-04-25T08:26:53;10.00;;;1.20;;
51949;SDS011;37974;53.218;6.640;2023-04-25T08:29:24;5.07;;;0.90;;
51949;SDS011;37974;53.218;6.640;2023-04-25T08:32:18;7.07;;;0.98;;
51949;SDS011;37974;53.218;6.640;2023-04-25T08:35:02;11.48;;;1.00;;
51949;SDS011;37974;53.218;6.640;2023-04-25T08:37:31;7.05;;;1.17;;
51949;SDS011;37974;53.218;6.640;2023-04-25T08:40:03;5.82;;;1.20;;
51949;SDS011;37974;53.218;6.640;2023-04-25T08:42:46;5.80;;;0.85;;
51949;SDS011;37974;53.218;6.640;2023-04-25T08:45:16;4.95;;;1.02;;
51949;SDS011;37974;53.218;6.640;2023-04-25T08:48:05;5.40;;;1.25;;
51949;SDS011;37974;53.218;6.640;2023-04-25T08:50:53;5.90;;;1.08;;
51949;SDS011;37974;53.218;6.640;2023-04-25T08:53:39;6.25;;;0.98;;
51949;SDS011;37974;53.218;6.640;2023-04-25T08:56:08;9.00;;;1.50;;
51949;SDS011;37974;53.218;6.640;2023-04-25T08:58:35;10.45;;;1.45;;
51949;SDS011;37974;53.218;6.640;2023-04-25T09:01:02;7.28;;;1.30;;
51949;SDS011;37974;53.218;6.640;2023-04-25T09:03:29;7.93;;;1.55;;
51949;SDS011;37974;53.218;6.640;2023-04-25T09:05:55;5.35;;;1.20;;
51949;SDS011;37974;53.218;6.640;2023-04-25T09:08:22;15.40;;;1.60;;
51949;SDS011;37974;53.218;6.640;2023-04-25T09:10:51;13.65;;;1.83;;
51949;SDS011;37974;53.218;6.640;2023-04-25T09:13:26;16.80;;;1.52;;
51949;SDS011;37974;53.218;6.640;2023-04-25T09:15:53;9.70;;;1.42;;
51949;SDS011;37974;53.218;6.640;2023-04-25T09:20:55;22.88;;;3.40;;
51949;SDS011;37974;53.218;6.640;2023-04-25T09:23:23;15.63;;;1.65;;
51949;SDS011;37974;53.218;6.640;2023-04-25T09:25:50;14.70;;;1.63;;
51949;SDS011;37974;53.218;6.640;2023-04-25T09:28:24;11.23;;;1.80;;
51949;SDS011;37974;53.218;6.640;2023-04-25T09:30:54;10.70;;;1.73;;
51949;SDS011;37974;53.218;6.640;2023-04-25T09:33:26;7.30;;;1.25;;
51949;SDS011;37974;53.218;6.640;2023-04-25T09:35:56;7.45;;;1.02;;
51949;SDS011;37974;53.218;6.640;2023-04-25T09:38:29;9.23;;;1.20;;
51949;SDS011;37974;53.218;6.640;2023-04-25T09:40:57;12.30;;;1.60;;
51949;SDS011;37974;53.218;6.640;2023-04-25T09:43:23;9.55;;;2.08;;
51949;SDS011;37974;53.218;6.640;2023-04-25T09:45:53;6.78;;;1.30;;
51949;SDS011;37974;53.218;6.640;2023-04-25T09:48:22;12.52;;;1.58;;
51949;SDS011;37974;53.218;6.640;2023-04-25T09:53:36;6.75;;;1.40;;
51949;SDS011;37974;53.218;6.640;2023-04-25T09:56:04;10.63;;;1.42;;
51949;SDS011;37974;53.218;6.640;2023-04-25T09:58:32;13.15;;;2.03;;
51949;SDS011;37974;53.218;6.640;2023-04-25T10:00:59;14.38;;;2.08;;
51949;SDS011;37974;53.218;6.640;2023-04-25T10:03:29;8.82;;;1.70;;
51949;SDS011;37974;53.218;6.640;2023-04-25T10:05:57;11.43;;;1.92;;
51949;SDS011;37974;53.218;6.640;2023-04-25T10:08:25;9.82;;;1.60;;
51949;SDS011;37974;53.218;6.640;2023-04-25T10:10:56;12.00;;;1.65;;
51949;SDS011;37974;53.218;6.640;2023-04-25T10:13:23;13.90;;;2.33;;
51949;SDS011;37974;53.218;6.640;2023-04-25T10:15:49;14.27;;;1.80;;
51949;SDS011;37974;53.218;6.640;2023-04-25T10:18:18;5.72;;;1.10;;
51949;SDS011;37974;53.218;6.640;2023-04-25T10:20:45;10.00;;;1.23;;
51949;SDS011;37974;53.218;6.640;2023-04-25T10:23:12;11.27;;;1.83;;
51949;SDS011;37974;53.218;6.640;2023-04-25T10:25:40;7.43;;;1.10;;
51949;SDS011;37974;53.218;6.640;2023-04-25T10:28:07;13.43;;;1.75;;
51949;SDS011;37974;53.218;6.640;2023-04-25T10:30:32;16.00;;;2.20;;
51949;SDS011;37974;53.218;6.640;2023-04-25T10:32:58;14.02;;;1.63;;
51949;SDS011;37974;53.218;6.640;2023-04-25T10:35:27;12.07;;;1.52;;
51949;SDS011;37974;53.218;6.640;2023-04-25T10:38:00;12.52;;;1.83;;
51949;SDS011;37974;53.218;6.640;2023-04-25T10:40:30;14.75;;;1.98;;
51949;SDS011;37974;53.218;6.640;2023-04-25T10:43:34;12.35;;;1.52;;
51949;SDS011;37974;53.218;6.640;2023-04-25T10:45:54;14.90;;;2.15;;
51949;SDS011;37974;53.218;6.640;2023-04-25T10:48:25;16.65;;;2.38;;
51949;SDS011;37974;53.218;6.640;2023-04-25T10:51:06;9.82;;;1.70;;
51949;SDS011;37974;53.218;6.640;2023-04-25T10:53:33;7.95;;;1.52;;
51949;SDS011;37974;53.218;6.640;2023-04-25T10:55:59;8.50;;;1.42;;
51949;SDS011;37974;53.218;6.640;2023-04-25T10:58:25;6.80;;;1.25;;
51949;SDS011;37974;53.218;6.640;2023-04-25T11:00:51;7.88;;;1.40;;
51949;SDS011;37974;53.218;6.640;2023-04-25T11:03:17;5.95;;;1.30;;
51949;SDS011;37974;53.218;6.640;2023-04-25T11:05:47;14.25;;;1.73;;
51949;SDS011;37974;53.218;6.640;2023-04-25T11:08:14;8.80;;;1.60;;
51949;SDS011;37974;53.218;6.640;2023-04-25T11:10:52;14.23;;;1.65;;
51949;SDS011;37974;53.218;6.640;2023-04-25T11:13:20;14.10;;;1.73;;
51949;SDS011;37974;53.218;6.640;2023-04-25T11:15:50;16.10;;;2.88;;
51949;SDS011;37974;53.218;6.640;2023-04-25T11:18:16;13.07;;;1.65;;
51949;SDS011;37974;53.218;6.640;2023-04-25T11:20:43;6.47;;;1.23;;
51949;SDS011;37974;53.218;6.640;2023-04-25T11:23:09;6.90;;;1.17;;
51949;SDS011;37974;53.218;6.640;2023-04-25T11:25:35;8.88;;;1.40;;
51949;SDS011;37974;53.218;6.640;2023-04-25T11:28:01;4.45;;;1.00;;
51949;SDS011;37974;53.218;6.640;2023-04-25T11:30:28;7.65;;;1.20;;
51949;SDS011;37974;53.218;6.640;2023-04-25T11:32:56;12.25;;;1.50;;
51949;SDS011;37974;53.218;6.640;2023-04-25T11:35:21;11.05;;;1.30;;
51949;SDS011;37974;53.218;6.640;2023-04-25T11:37:48;18.70;;;1.63;;
51949;SDS011;37974;53.218;6.640;2023-04-25T11:40:15;9.73;;;1.60;;
51949;SDS011;37974;53.218;6.640;2023-04-25T11:42:44;9.68;;;2.20;;
51949;SDS011;37974;53.218;6.640;2023-04-25T11:45:11;11.63;;;1.58;;
51949;SDS011;37974;53.218;6.640;2023-04-25T11:47:38;13.95;;;2.17;;
51949;SDS011;37974;53.218;6.640;2023-04-25T11:50:04;17.33;;;2.08;;
51949;SDS011;37974;53.218;6.640;2023-04-25T11:52:37;15.48;;;2.10;;
51949;SDS011;37974;53.218;6.640;2023-04-25T11:55:06;8.48;;;1.33;;
51949;SDS011;37974;53.218;6.640;2023-04-25T11:57:33;10.57;;;1.48;;
51949;SDS011;37974;53.218;6.640;2023-04-25T12:02:35;10.27;;;1.55;;
51949;SDS011;37974;53.218;6.640;2023-04-25T12:05:01;8.65;;;1.45;;
51949;SDS011;37974;53.218;6.640;2023-04-25T12:07:29;9.77;;;1.77;;
51949;SDS011;37974;53.218;6.640;2023-04-25T12:09:55;11.10;;;1.50;;
51949;SDS011;37974;53.218;6.640;2023-04-25T12:12:21;11.95;;;1.90;;
51949;SDS011;37974;53.218;6.640;2023-04-25T12:14:47;10.23;;;1.65;;
51949;SDS011;37974;53.218;6.640;2023-04-25T12:17:14;8.43;;;1.60;;
51949;SDS011;37974;53.218;6.640;2023-04-25T12:19:40;11.25;;;1.40;;
51949;SDS011;37974;53.218;6.640;2023-04-25T12:22:18;12.45;;;1.52;;
51949;SDS011;37974;53.218;6.640;2023-04-25T12:24:45;15.18;;;1.75;;
51949;SDS011;37974;53.218;6.640;2023-04-25T12:27:13;7.63;;;1.48;;
51949;SDS011;37974;53.218;6.640;2023-04-25T12:29:49;7.65;;;1.35;;
51949;SDS011;37974;53.218;6.640;2023-04-25T12:32:22;11.27;;;1.48;;
51949;SDS011;37974;53.218;6.640;2023-04-25T12:34:48;12.32;;;1.40;;
51949;SDS011;37974;53.218;6.640;2023-04-25T12:37:14;8.93;;;1.60;;
51949;SDS011;37974;53.218;6.640;2023-04-25T12:39:40;11.68;;;1.55;;
51949;SDS011;37974;53.218;6.640;2023-04-25T12:42:06;12.18;;;1.65;;
51949;SDS011;37974;53.218;6.640;2023-04-25T12:44:33;13.20;;;2.25;;
51949;SDS011;37974;53.218;6.640;2023-04-25T12:46:59;15.60;;;1.85;;
51949;SDS011;37974;53.218;6.640;2023-04-25T12:49:25;14.25;;;2.30;;
51949;SDS011;37974;53.218;6.640;2023-04-25T12:51:50;11.90;;;1.90;;
51949;SDS011;37974;53.218;6.640;2023-04-25T12:54:16;11.20;;;1.40;;
51949;SDS011;37974;53.218;6.640;2023-04-25T12:56:42;9.77;;;1.27;;
51949;SDS011;37974;53.218;6.640;2023-04-25T12:59:08;7.57;;;1.48;;
51949;SDS011;37974;53.218;6.640;2023-04-25T13:01:34;12.70;;;1.35;;
51949;SDS011;37974;53.218;6.640;2023-04-25T13:04:00;9.07;;;1.25;;
51949;SDS011;37974;53.218;6.640;2023-04-25T13:06:26;10.07;;;1.27;;
51949;SDS011;37974;53.218;6.640;2023-04-25T13:08:52;14.23;;;1.83;;
51949;SDS011;37974;53.218;6.640;2023-04-25T13:11:17;10.38;;;1.60;;
51949;SDS011;37974;53.218;6.640;2023-04-25T13:13:43;10.93;;;2.05;;
51949;SDS011;37974;53.218;6.640;2023-04-25T13:16:09;7.72;;;1.58;;
51949;SDS011;37974;53.218;6.640;2023-04-25T13:18:36;11.07;;;1.30;;
51949;SDS011;37974;53.218;6.640;2023-04-25T13:21:02;11.02;;;1.50;;
51949;SDS011;37974;53.218;6.640;2023-04-25T13:23:28;9.13;;;1.20;;
51949;SDS011;37974;53.218;6.640;2023-04-25T13:25:55;9.43;;;1.38;;
51949;SDS011;37974;53.218;6.640;2023-04-25T13:28:23;8.40;;;1.63;;
51949;SDS011;37974;53.218;6.640;2023-04-25T13:30:49;8.73;;;1.25;;
51949;SDS011;37974;53.218;6.640;2023-04-25T13:33:16;9.93;;;1.50;;
51949;SDS011;37974;53.218;6.640;2023-04-25T13:35:42;14.07;;;2.10;;
51949;SDS011;37974;53.218;6.640;2023-04-25T13:38:11;9.52;;;1.50;;
51949;SDS011;37974;53.218;6.640;2023-04-25T13:40:38;13.98;;;1.85;;
51949;SDS011;37974;53.218;6.640;2023-04-25T13:43:04;10.50;;;1.63;;
51949;SDS011;37974;53.218;6.640;2023-04-25T13:45:31;10.98;;;1.58;;
51949;SDS011;37974;53.218;6.640;2023-04-25T13:47:57;7.82;;;1.55;;
51949;SDS011;37974;53.218;6.640;2023-04-25T13:50:23;17.85;;;1.88;;
51949;SDS011;37974;53.218;6.640;2023-04-25T13:52:49;11.15;;;1.42;;
51949;SDS011;37974;53.218;6.640;2023-04-25T13:55:15;9.30;;;1.30;;
51949;SDS011;37974;53.218;6.640;2023-04-25T13:57:41;12.27;;;1.20;;
51949;SDS011;37974;53.218;6.640;2023-04-25T14:00:07;7.68;;;1.20;;
51949;SDS011;37974;53.218;6.640;2023-04-25T14:02:34;9.38;;;1.30;;
51949;SDS011;37974;53.218;6.640;2023-04-25T14:05:01;8.68;;;1.25;;
51949;SDS011;37974;53.218;6.640;2023-04-25T14:07:28;9.38;;;1.48;;
51949;SDS011;37974;53.218;6.640;2023-04-25T14:09:54;6.93;;;1.52;;
51949;SDS011;37974;53.218;6.640;2023-04-25T14:12:19;9.95;;;1.85;;
51949;SDS011;37974;53.218;6.640;2023-04-25T14:14:45;13.80;;;1.92;;
51949;SDS011;37974;53.218;6.640;2023-04-25T14:17:11;11.98;;;1.80;;
51949;SDS011;37974;53.218;6.640;2023-04-25T14:19:37;10.73;;;1.70;;
51949;SDS011;37974;53.218;6.640;2023-04-25T14:22:03;16.77;;;1.85;;
51949;SDS011;37974;53.218;6.640;2023-04-25T14:24:29;11.82;;;1.23;;
51949;SDS011;37974;53.218;6.640;2023-04-25T14:26:55;6.97;;;1.27;;
51949;SDS011;37974;53.218;6.640;2023-04-25T14:29:21;9.85;;;1.60;;
51949;SDS011;37974;53.218;6.640;2023-04-25T14:31:53;9.38;;;1.17;;
51949;SDS011;37974;53.218;6.640;2023-04-25T14:34:22;7.70;;;1.33;;
51949;SDS011;37974;53.218;6.640;2023-04-25T14:36:48;11.20;;;1.40;;
51949;SDS011;37974;53.218;6.640;2023-04-25T14:39:14;10.65;;;1.35;;
51949;SDS011;37974;53.218;6.640;2023-04-25T14:41:41;9.13;;;1.42;;
51949;SDS011;37974;53.218;6.640;2023-04-25T14:44:07;8.38;;;1.33;;
51949;SDS011;37974;53.218;6.640;2023-04-25T14:46:33;13.02;;;1.77;;
51949;SDS011;37974;53.218;6.640;2023-04-25T14:48:59;9.82;;;1.48;;
51949;SDS011;37974;53.218;6.640;2023-04-25T14:51:25;7.38;;;1.40;;
51949;SDS011;37974;53.218;6.640;2023-04-25T14:53:51;6.35;;;1.10;;
51949;SDS011;37974;53.218;6.640;2023-04-25T14:56:17;6.82;;;1.25;;
51949;SDS011;37974;53.218;6.640;2023-04-25T14:58:43;5.78;;;1.60;;
51949;SDS011;37974;53.218;6.640;2023-04-25T15:01:10;10.40;;;1.20;;
51949;SDS011;37974;53.218;6.640;2023-04-25T15:03:38;4.82;;;0.85;;
51949;SDS011;37974;53.218;6.640;2023-04-25T15:06:05;8.18;;;1.58;;
51949;SDS011;37974;53.218;6.640;2023-04-25T15:08:31;12.15;;;1.92;;
51949;SDS011;37974;53.218;6.640;2023-04-25T15:10:58;9.95;;;1.42;;
51949;SDS011;37974;53.218;6.640;2023-04-25T15:13:24;7.18;;;1.50;;
51949;SDS011;37974;53.218;6.640;2023-04-25T15:15:51;15.45;;;2.50;;
51949;SDS011;37974;53.218;6.640;2023-04-25T15:18:19;13.25;;;1.60;;
51949;SDS011;37974;53.218;6.640;2023-04-25T15:20:49;13.32;;;2.47;;